sensor_id;sensor_type;location;lat;lon;timestamp;P1;durP1;ratioP1;P2;durP2;ratioP2
12886;SDS011;6511;49.746;6.094;2022-09-29T00:00:50;21.55;;;11.27;;
12886;SDS011;6511;49.746;6.094;2022-09-29T00:03:16;27.13;;;11.67;;
12886;SDS011;6511;49.746;6.094;2022-09-29T00:05:46;47.53;;;13.43;;
12886;SDS011;6511;49.746;6.094;2022-09-29T00:08:14;32.60;;;12.85;;
12886;SDS011;6511;49.746;6.094;2022-09-29T00:10:41;22.83;;;11.70;;
12886;SDS011;6511;49.746;6.094;2022-09-29T00:13:07;27.57;;;13.03;;
12886;SDS011;6511;49.746;6.094;2022-09-29T00:15:32;32.47;;;13.35;;
12886;SDS011;6511;49.746;6.094;2022-09-29T00:17:58;19.97;;;12.17;;
12886;SDS011;6511;49.746;6.094;2022-09-29T00:20:24;29.15;;;13.70;;
12886;SDS011;6511;49.746;6.094;2022-09-29T00:22:49;23.70;;;13.47;;
12886;SDS011;6511;49.746;6.094;2022-09-29T00:25:16;57.40;;;14.50;;
12886;SDS011;6511;49.746;6.094;2022-09-29T00:27:42;31.43;;;13.57;;
12886;SDS011;6511;49.746;6.094;2022-09-29T00:30:08;39.63;;;14.13;;
12886;SDS011;6511;49.746;6.094;2022-09-29T00:32:34;21.15;;;12.00;;
12886;SDS011;6511;49.746;6.094;2022-09-29T00:34:59;28.60;;;12.20;;
12886;SDS011;6511;49.746;6.094;2022-09-29T00:37:25;44.85;;;13.23;;
12886;SDS011;6511;49.746;6.094;2022-09-29T00:39:51;32.92;;;12.20;;
12886;SDS011;6511;49.746;6.094;2022-09-29T00:42:18;26.83;;;12.23;;
12886;SDS011;6511;49.746;6.094;2022-09-29T00:44:53;25.27;;;12.20;;
12886;SDS011;6511;49.746;6.094;2022-09-29T00:47:19;32.30;;;13.98;;
12886;SDS011;6511;49.746;6.094;2022-09-29T00:49:57;37.30;;;13.80;;
12886;SDS011;6511;49.746;6.094;2022-09-29T00:52:33;31.90;;;13.43;;
12886;SDS011;6511;49.746;6.094;2022-09-29T00:55:05;28.92;;;13.80;;
12886;SDS011;6511;49.746;6.094;2022-09-29T00:58:08;47.60;;;14.95;;
12886;SDS011;6511;49.746;6.094;2022-09-29T01:00:29;75.13;;;15.45;;
12886;SDS011;6511;49.746;6.094;2022-09-29T01:03:14;29.80;;;14.82;;
12886;SDS011;6511;49.746;6.094;2022-09-29T01:05:51;39.38;;;15.23;;
12886;SDS011;6511;49.746;6.094;2022-09-29T01:08:30;67.60;;;15.65;;
12886;SDS011;6511;49.746;6.094;2022-09-29T01:11:03;69.22;;;14.98;;
12886;SDS011;6511;49.746;6.094;2022-09-29T01:13:30;59.70;;;14.43;;
12886;SDS011;6511;49.746;6.094;2022-09-29T01:15:57;55.65;;;15.20;;
12886;SDS011;6511;49.746;6.094;2022-09-29T01:18:23;58.60;;;15.27;;
12886;SDS011;6511;49.746;6.094;2022-09-29T01:30:04;41.63;;;13.73;;
12886;SDS011;6511;49.746;6.094;2022-09-29T01:35:31;97.30;;;16.15;;
12886;SDS011;6511;49.746;6.094;2022-09-29T01:46:20;57.20;;;14.55;;
12886;SDS011;6511;49.746;6.094;2022-09-29T01:48:54;29.77;;;13.55;;
12886;SDS011;6511;49.746;6.094;2022-09-29T01:51:24;92.43;;;16.23;;
12886;SDS011;6511;49.746;6.094;2022-09-29T01:54:13;37.20;;;14.80;;
12886;SDS011;6511;49.746;6.094;2022-09-29T01:56:58;31.15;;;14.60;;
12886;SDS011;6511;49.746;6.094;2022-09-29T02:02:19;27.57;;;14.63;;
12886;SDS011;6511;49.746;6.094;2022-09-29T02:05:02;26.80;;;15.57;;
12886;SDS011;6511;49.746;6.094;2022-09-29T02:07:33;42.83;;;14.82;;
12886;SDS011;6511;49.746;6.094;2022-09-29T02:10:04;40.35;;;14.93;;
12886;SDS011;6511;49.746;6.094;2022-09-29T02:12:35;45.33;;;14.73;;
12886;SDS011;6511;49.746;6.094;2022-09-29T02:15:04;30.40;;;14.60;;
12886;SDS011;6511;49.746;6.094;2022-09-29T02:17:38;36.22;;;15.63;;
12886;SDS011;6511;49.746;6.094;2022-09-29T02:20:08;44.78;;;15.70;;
12886;SDS011;6511;49.746;6.094;2022-09-29T02:22:35;43.17;;;17.47;;
12886;SDS011;6511;49.746;6.094;2022-09-29T02:25:02;51.07;;;17.63;;
12886;SDS011;6511;49.746;6.094;2022-09-29T02:27:28;37.28;;;17.63;;
12886;SDS011;6511;49.746;6.094;2022-09-29T02:29:55;44.67;;;17.90;;
12886;SDS011;6511;49.746;6.094;2022-09-29T02:32:23;58.30;;;19.67;;
12886;SDS011;6511;49.746;6.094;2022-09-29T02:34:49;42.93;;;19.00;;
12886;SDS011;6511;49.746;6.094;2022-09-29T02:37:36;95.32;;;20.52;;
12886;SDS011;6511;49.746;6.094;2022-09-29T02:42:55;65.15;;;18.65;;
12886;SDS011;6511;49.746;6.094;2022-09-29T02:49:07;67.55;;;18.60;;
12886;SDS011;6511;49.746;6.094;2022-09-29T02:54:05;67.90;;;18.10;;
12886;SDS011;6511;49.746;6.094;2022-09-29T02:56:40;44.78;;;19.42;;
12886;SDS011;6511;49.746;6.094;2022-09-29T03:02:02;47.30;;;19.17;;
12886;SDS011;6511;49.746;6.094;2022-09-29T03:04:28;58.10;;;18.97;;
12886;SDS011;6511;49.746;6.094;2022-09-29T03:06:54;67.15;;;19.48;;
12886;SDS011;6511;49.746;6.094;2022-09-29T03:09:19;62.23;;;18.63;;
12886;SDS011;6511;49.746;6.094;2022-09-29T03:11:45;104.53;;;18.95;;
12886;SDS011;6511;49.746;6.094;2022-09-29T03:14:11;75.10;;;18.95;;
12886;SDS011;6511;49.746;6.094;2022-09-29T03:16:37;182.07;;;21.90;;
12886;SDS011;6511;49.746;6.094;2022-09-29T03:19:03;90.10;;;18.37;;
12886;SDS011;6511;49.746;6.094;2022-09-29T03:21:30;56.65;;;17.70;;
12886;SDS011;6511;49.746;6.094;2022-09-29T03:23:56;48.30;;;16.77;;
12886;SDS011;6511;49.746;6.094;2022-09-29T03:26:22;67.00;;;18.37;;
12886;SDS011;6511;49.746;6.094;2022-09-29T03:28:48;72.45;;;18.02;;
12886;SDS011;6511;49.746;6.094;2022-09-29T03:31:14;154.07;;;23.08;;
12886;SDS011;6511;49.746;6.094;2022-09-29T03:33:40;81.97;;;21.07;;
12886;SDS011;6511;49.746;6.094;2022-09-29T03:36:06;98.35;;;23.77;;
12886;SDS011;6511;49.746;6.094;2022-09-29T03:38:33;53.35;;;22.05;;
12886;SDS011;6511;49.746;6.094;2022-09-29T03:40:59;58.30;;;23.38;;
12886;SDS011;6511;49.746;6.094;2022-09-29T03:43:24;61.47;;;23.50;;
12886;SDS011;6511;49.746;6.094;2022-09-29T03:45:51;57.90;;;24.13;;
12886;SDS011;6511;49.746;6.094;2022-09-29T03:48:18;76.00;;;24.73;;
12886;SDS011;6511;49.746;6.094;2022-09-29T03:50:45;71.07;;;24.83;;
12886;SDS011;6511;49.746;6.094;2022-09-29T03:53:12;85.13;;;24.77;;
12886;SDS011;6511;49.746;6.094;2022-09-29T03:55:38;75.13;;;24.15;;
12886;SDS011;6511;49.746;6.094;2022-09-29T03:58:03;99.40;;;24.00;;
12886;SDS011;6511;49.746;6.094;2022-09-29T04:00:29;74.70;;;24.17;;
12886;SDS011;6511;49.746;6.094;2022-09-29T04:02:55;83.68;;;26.83;;
12886;SDS011;6511;49.746;6.094;2022-09-29T04:05:21;74.70;;;26.88;;
12886;SDS011;6511;49.746;6.094;2022-09-29T04:07:47;106.47;;;26.67;;
12886;SDS011;6511;49.746;6.094;2022-09-29T04:10:13;120.45;;;26.23;;
12886;SDS011;6511;49.746;6.094;2022-09-29T04:12:39;87.18;;;24.38;;
12886;SDS011;6511;49.746;6.094;2022-09-29T04:15:05;58.83;;;24.58;;
12886;SDS011;6511;49.746;6.094;2022-09-29T04:17:34;88.22;;;26.15;;
12886;SDS011;6511;49.746;6.094;2022-09-29T04:20:00;67.85;;;24.67;;
12886;SDS011;6511;49.746;6.094;2022-09-29T04:22:25;59.88;;;24.80;;
12886;SDS011;6511;49.746;6.094;2022-09-29T04:24:54;67.40;;;25.53;;
12886;SDS011;6511;49.746;6.094;2022-09-29T04:27:24;71.22;;;25.77;;
12886;SDS011;6511;49.746;6.094;2022-09-29T04:29:49;52.33;;;23.45;;
12886;SDS011;6511;49.746;6.094;2022-09-29T04:32:15;48.53;;;21.83;;
12886;SDS011;6511;49.746;6.094;2022-09-29T04:34:41;42.33;;;20.98;;
12886;SDS011;6511;49.746;6.094;2022-09-29T04:37:07;37.72;;;20.45;;
12886;SDS011;6511;49.746;6.094;2022-09-29T04:39:35;51.40;;;22.20;;
12886;SDS011;6511;49.746;6.094;2022-09-29T04:42:01;37.30;;;19.75;;
12886;SDS011;6511;49.746;6.094;2022-09-29T04:44:27;43.40;;;20.40;;
12886;SDS011;6511;49.746;6.094;2022-09-29T04:46:52;37.73;;;19.73;;
12886;SDS011;6511;49.746;6.094;2022-09-29T04:49:18;40.50;;;19.02;;
12886;SDS011;6511;49.746;6.094;2022-09-29T04:51:44;34.42;;;19.90;;
12886;SDS011;6511;49.746;6.094;2022-09-29T04:54:10;43.05;;;19.15;;
12886;SDS011;6511;49.746;6.094;2022-09-29T04:56:36;38.13;;;19.37;;
12886;SDS011;6511;49.746;6.094;2022-09-29T04:59:02;36.90;;;19.20;;
12886;SDS011;6511;49.746;6.094;2022-09-29T05:01:28;32.78;;;17.73;;
12886;SDS011;6511;49.746;6.094;2022-09-29T05:03:54;42.58;;;19.08;;
12886;SDS011;6511;49.746;6.094;2022-09-29T05:06:20;30.33;;;18.30;;
12886;SDS011;6511;49.746;6.094;2022-09-29T05:08:46;27.20;;;17.97;;
12886;SDS011;6511;49.746;6.094;2022-09-29T05:11:12;30.08;;;16.83;;
12886;SDS011;6511;49.746;6.094;2022-09-29T05:13:38;25.67;;;16.70;;
12886;SDS011;6511;49.746;6.094;2022-09-29T05:16:04;25.08;;;16.42;;
12886;SDS011;6511;49.746;6.094;2022-09-29T05:18:30;22.38;;;15.68;;
12886;SDS011;6511;49.746;6.094;2022-09-29T05:21:01;21.88;;;15.75;;
12886;SDS011;6511;49.746;6.094;2022-09-29T05:23:30;19.33;;;14.48;;
12886;SDS011;6511;49.746;6.094;2022-09-29T05:25:59;20.50;;;14.65;;
12886;SDS011;6511;49.746;6.094;2022-09-29T05:28:26;18.00;;;13.85;;
12886;SDS011;6511;49.746;6.094;2022-09-29T05:30:52;18.30;;;13.80;;
12886;SDS011;6511;49.746;6.094;2022-09-29T05:33:18;16.75;;;13.32;;
12886;SDS011;6511;49.746;6.094;2022-09-29T05:35:43;16.30;;;12.60;;
12886;SDS011;6511;49.746;6.094;2022-09-29T05:38:09;16.10;;;12.80;;
12886;SDS011;6511;49.746;6.094;2022-09-29T05:40:35;15.63;;;12.07;;
12886;SDS011;6511;49.746;6.094;2022-09-29T05:43:01;16.00;;;13.05;;
12886;SDS011;6511;49.746;6.094;2022-09-29T05:45:27;15.02;;;12.30;;
12886;SDS011;6511;49.746;6.094;2022-09-29T05:47:52;16.90;;;12.15;;
12886;SDS011;6511;49.746;6.094;2022-09-29T05:50:19;15.03;;;12.60;;
12886;SDS011;6511;49.746;6.094;2022-09-29T05:52:46;15.90;;;12.53;;
12886;SDS011;6511;49.746;6.094;2022-09-29T05:55:13;16.13;;;11.97;;
12886;SDS011;6511;49.746;6.094;2022-09-29T05:57:39;15.15;;;12.05;;
12886;SDS011;6511;49.746;6.094;2022-09-29T06:00:05;17.17;;;12.40;;
12886;SDS011;6511;49.746;6.094;2022-09-29T06:02:32;13.53;;;10.80;;
12886;SDS011;6511;49.746;6.094;2022-09-29T06:04:58;12.32;;;11.00;;
12886;SDS011;6511;49.746;6.094;2022-09-29T06:07:24;12.43;;;10.50;;
12886;SDS011;6511;49.746;6.094;2022-09-29T06:09:50;12.38;;;10.32;;
12886;SDS011;6511;49.746;6.094;2022-09-29T06:12:15;11.77;;;9.93;;
12886;SDS011;6511;49.746;6.094;2022-09-29T06:14:41;12.77;;;11.02;;
12886;SDS011;6511;49.746;6.094;2022-09-29T06:17:07;13.90;;;11.82;;
12886;SDS011;6511;49.746;6.094;2022-09-29T06:19:32;14.68;;;12.02;;
12886;SDS011;6511;49.746;6.094;2022-09-29T06:21:58;14.57;;;12.20;;
12886;SDS011;6511;49.746;6.094;2022-09-29T06:24:24;15.82;;;11.85;;
12886;SDS011;6511;49.746;6.094;2022-09-29T06:26:49;15.63;;;12.93;;
12886;SDS011;6511;49.746;6.094;2022-09-29T06:29:15;15.35;;;12.35;;
12886;SDS011;6511;49.746;6.094;2022-09-29T06:31:41;15.37;;;12.60;;
12886;SDS011;6511;49.746;6.094;2022-09-29T06:34:07;13.40;;;11.90;;
12886;SDS011;6511;49.746;6.094;2022-09-29T06:36:34;22.77;;;14.75;;
12886;SDS011;6511;49.746;6.094;2022-09-29T06:39:22;23.17;;;15.48;;
12886;SDS011;6511;49.746;6.094;2022-09-29T06:41:48;46.03;;;16.93;;
12886;SDS011;6511;49.746;6.094;2022-09-29T06:44:17;48.45;;;17.05;;
12886;SDS011;6511;49.746;6.094;2022-09-29T06:46:44;88.05;;;19.52;;
12886;SDS011;6511;49.746;6.094;2022-09-29T06:49:10;72.35;;;17.60;;
12886;SDS011;6511;49.746;6.094;2022-09-29T06:51:37;74.63;;;18.88;;
12886;SDS011;6511;49.746;6.094;2022-09-29T06:54:03;35.37;;;16.27;;
12886;SDS011;6511;49.746;6.094;2022-09-29T06:56:29;48.67;;;16.70;;
12886;SDS011;6511;49.746;6.094;2022-09-29T06:58:54;40.47;;;16.10;;
12886;SDS011;6511;49.746;6.094;2022-09-29T07:01:20;57.00;;;17.10;;
12886;SDS011;6511;49.746;6.094;2022-09-29T07:03:46;47.57;;;15.70;;
12886;SDS011;6511;49.746;6.094;2022-09-29T07:06:12;45.38;;;14.95;;
12886;SDS011;6511;49.746;6.094;2022-09-29T07:08:38;76.13;;;16.27;;
12886;SDS011;6511;49.746;6.094;2022-09-29T07:11:07;26.73;;;15.10;;
12886;SDS011;6511;49.746;6.094;2022-09-29T07:13:34;54.90;;;15.48;;
12886;SDS011;6511;49.746;6.094;2022-09-29T07:16:07;51.97;;;14.70;;
12886;SDS011;6511;49.746;6.094;2022-09-29T07:18:38;39.95;;;15.10;;
12886;SDS011;6511;49.746;6.094;2022-09-29T07:21:05;24.50;;;14.02;;
12886;SDS011;6511;49.746;6.094;2022-09-29T07:23:34;17.93;;;12.33;;
12886;SDS011;6511;49.746;6.094;2022-09-29T07:26:00;92.47;;;15.35;;
12886;SDS011;6511;49.746;6.094;2022-09-29T07:28:26;50.97;;;13.17;;
12886;SDS011;6511;49.746;6.094;2022-09-29T07:31:03;52.70;;;13.30;;
12886;SDS011;6511;49.746;6.094;2022-09-29T07:33:30;43.47;;;12.65;;
12886;SDS011;6511;49.746;6.094;2022-09-29T07:35:57;24.63;;;11.82;;
12886;SDS011;6511;49.746;6.094;2022-09-29T07:38:26;33.65;;;11.93;;
12886;SDS011;6511;49.746;6.094;2022-09-29T07:40:52;25.83;;;11.63;;
12886;SDS011;6511;49.746;6.094;2022-09-29T07:43:18;80.88;;;13.00;;
12886;SDS011;6511;49.746;6.094;2022-09-29T07:45:47;60.27;;;13.00;;
12886;SDS011;6511;49.746;6.094;2022-09-29T07:48:15;44.53;;;12.05;;
12886;SDS011;6511;49.746;6.094;2022-09-29T07:50:41;22.50;;;10.35;;
12886;SDS011;6511;49.746;6.094;2022-09-29T07:53:07;13.23;;;10.60;;
12886;SDS011;6511;49.746;6.094;2022-09-29T07:55:33;21.27;;;10.13;;
12886;SDS011;6511;49.746;6.094;2022-09-29T07:57:58;25.15;;;10.38;;
12886;SDS011;6511;49.746;6.094;2022-09-29T08:00:25;15.15;;;10.70;;
12886;SDS011;6511;49.746;6.094;2022-09-29T08:02:51;28.77;;;15.23;;
12886;SDS011;6511;49.746;6.094;2022-09-29T08:05:17;12.00;;;10.53;;
12886;SDS011;6511;49.746;6.094;2022-09-29T08:07:43;10.85;;;9.75;;
12886;SDS011;6511;49.746;6.094;2022-09-29T08:10:09;10.07;;;9.00;;
12886;SDS011;6511;49.746;6.094;2022-09-29T08:12:34;13.03;;;9.73;;
12886;SDS011;6511;49.746;6.094;2022-09-29T08:15:00;12.63;;;10.45;;
12886;SDS011;6511;49.746;6.094;2022-09-29T08:17:25;14.43;;;11.00;;
12886;SDS011;6511;49.746;6.094;2022-09-29T08:19:51;13.15;;;11.45;;
12886;SDS011;6511;49.746;6.094;2022-09-29T08:22:17;19.20;;;11.40;;
12886;SDS011;6511;49.746;6.094;2022-09-29T08:24:42;20.30;;;11.67;;
12886;SDS011;6511;49.746;6.094;2022-09-29T08:27:11;16.25;;;11.27;;
12886;SDS011;6511;49.746;6.094;2022-09-29T08:29:37;13.50;;;11.60;;
12886;SDS011;6511;49.746;6.094;2022-09-29T08:32:02;13.20;;;11.20;;
12886;SDS011;6511;49.746;6.094;2022-09-29T08:34:28;15.82;;;11.40;;
12886;SDS011;6511;49.746;6.094;2022-09-29T08:36:53;22.48;;;12.32;;
12886;SDS011;6511;49.746;6.094;2022-09-29T08:39:20;28.02;;;11.98;;
12886;SDS011;6511;49.746;6.094;2022-09-29T08:44:28;23.15;;;10.88;;
12886;SDS011;6511;49.746;6.094;2022-09-29T08:47:01;12.98;;;10.27;;
12886;SDS011;6511;49.746;6.094;2022-09-29T08:49:40;15.90;;;10.83;;
12886;SDS011;6511;49.746;6.094;2022-09-29T08:52:10;12.93;;;10.77;;
12886;SDS011;6511;49.746;6.094;2022-09-29T08:54:44;17.13;;;10.70;;
12886;SDS011;6511;49.746;6.094;2022-09-29T08:57:13;11.98;;;10.07;;
12886;SDS011;6511;49.746;6.094;2022-09-29T08:59:44;17.10;;;11.73;;
12886;SDS011;6511;49.746;6.094;2022-09-29T09:05:27;14.20;;;11.35;;
12886;SDS011;6511;49.746;6.094;2022-09-29T09:10:42;14.30;;;11.10;;
12886;SDS011;6511;49.746;6.094;2022-09-29T09:13:32;16.15;;;12.00;;
12886;SDS011;6511;49.746;6.094;2022-09-29T09:21:38;14.80;;;10.80;;
12886;SDS011;6511;49.746;6.094;2022-09-29T09:26:39;14.63;;;10.82;;
12886;SDS011;6511;49.746;6.094;2022-09-29T09:32:07;14.15;;;11.07;;
12886;SDS011;6511;49.746;6.094;2022-09-29T09:42:43;16.17;;;13.87;;
12886;SDS011;6511;49.746;6.094;2022-09-29T09:45:15;11.77;;;10.20;;
12886;SDS011;6511;49.746;6.094;2022-09-29T09:47:50;12.00;;;10.70;;
12886;SDS011;6511;49.746;6.094;2022-09-29T09:50:22;12.13;;;10.85;;
12886;SDS011;6511;49.746;6.094;2022-09-29T09:53:05;12.13;;;10.67;;
12886;SDS011;6511;49.746;6.094;2022-09-29T09:55:40;13.40;;;11.43;;
12886;SDS011;6511;49.746;6.094;2022-09-29T10:01:02;12.27;;;10.60;;
12886;SDS011;6511;49.746;6.094;2022-09-29T10:03:31;11.57;;;10.07;;
12886;SDS011;6511;49.746;6.094;2022-09-29T10:05:57;12.52;;;10.98;;
12886;SDS011;6511;49.746;6.094;2022-09-29T10:10:49;13.00;;;11.30;;
12886;SDS011;6511;49.746;6.094;2022-09-29T10:13:15;13.95;;;11.73;;
12886;SDS011;6511;49.746;6.094;2022-09-29T10:18:45;14.13;;;11.80;;
12886;SDS011;6511;49.746;6.094;2022-09-29T10:23:54;15.40;;;11.77;;
12886;SDS011;6511;49.746;6.094;2022-09-29T10:26:25;14.10;;;11.57;;
12886;SDS011;6511;49.746;6.094;2022-09-29T10:28:58;12.80;;;11.07;;
12886;SDS011;6511;49.746;6.094;2022-09-29T10:31:27;12.68;;;10.57;;
12886;SDS011;6511;49.746;6.094;2022-09-29T10:33:59;13.45;;;10.82;;
12886;SDS011;6511;49.746;6.094;2022-09-29T10:39:30;13.85;;;10.70;;
12886;SDS011;6511;49.746;6.094;2022-09-29T10:42:14;14.02;;;10.48;;
12886;SDS011;6511;49.746;6.094;2022-09-29T10:44:43;13.10;;;11.60;;
12886;SDS011;6511;49.746;6.094;2022-09-29T10:47:19;14.10;;;12.30;;
12886;SDS011;6511;49.746;6.094;2022-09-29T10:49:45;14.73;;;12.43;;
12886;SDS011;6511;49.746;6.094;2022-09-29T10:52:24;13.10;;;11.73;;
12886;SDS011;6511;49.746;6.094;2022-09-29T10:54:53;13.75;;;12.25;;
12886;SDS011;6511;49.746;6.094;2022-09-29T10:57:24;12.57;;;11.27;;
12886;SDS011;6511;49.746;6.094;2022-09-29T10:59:52;13.40;;;11.77;;
12886;SDS011;6511;49.746;6.094;2022-09-29T11:02:23;12.80;;;11.50;;
12886;SDS011;6511;49.746;6.094;2022-09-29T11:04:50;14.00;;;12.10;;
12886;SDS011;6511;49.746;6.094;2022-09-29T11:07:17;17.17;;;12.98;;
12886;SDS011;6511;49.746;6.094;2022-09-29T11:09:43;12.70;;;11.25;;
12886;SDS011;6511;49.746;6.094;2022-09-29T11:18:30;13.35;;;9.70;;
12886;SDS011;6511;49.746;6.094;2022-09-29T11:26:53;8.75;;;7.80;;
12886;SDS011;6511;49.746;6.094;2022-09-29T11:32:33;10.30;;;8.45;;
12886;SDS011;6511;49.746;6.094;2022-09-29T11:35:04;10.60;;;8.98;;
12886;SDS011;6511;49.746;6.094;2022-09-29T11:38:09;10.23;;;8.30;;
12886;SDS011;6511;49.746;6.094;2022-09-29T11:48:41;9.35;;;7.70;;
12886;SDS011;6511;49.746;6.094;2022-09-29T11:59:16;8.25;;;5.80;;
12886;SDS011;6511;49.746;6.094;2022-09-29T12:18:47;8.50;;;7.07;;
12886;SDS011;6511;49.746;6.094;2022-09-29T12:21:12;5.82;;;5.07;;
12886;SDS011;6511;49.746;6.094;2022-09-29T12:23:41;6.10;;;5.38;;
12886;SDS011;6511;49.746;6.094;2022-09-29T12:26:12;10.60;;;5.88;;
12886;SDS011;6511;49.746;6.094;2022-09-29T12:29:04;9.30;;;5.25;;
12886;SDS011;6511;49.746;6.094;2022-09-29T12:31:41;9.82;;;4.47;;
12886;SDS011;6511;49.746;6.094;2022-09-29T12:34:45;7.82;;;4.47;;
12886;SDS011;6511;49.746;6.094;2022-09-29T12:37:04;7.28;;;4.22;;
12886;SDS011;6511;49.746;6.094;2022-09-29T12:39:43;8.23;;;4.18;;
12886;SDS011;6511;49.746;6.094;2022-09-29T12:42:37;10.07;;;3.92;;
12886;SDS011;6511;49.746;6.094;2022-09-29T12:54:19;6.20;;;3.07;;
12886;SDS011;6511;49.746;6.094;2022-09-29T12:57:07;6.50;;;2.90;;
12886;SDS011;6511;49.746;6.094;2022-09-29T13:19:11;3.90;;;2.57;;
12886;SDS011;6511;49.746;6.094;2022-09-29T13:30:28;3.28;;;2.40;;
12886;SDS011;6511;49.746;6.094;2022-09-29T13:35:40;2.25;;;1.77;;
12886;SDS011;6511;49.746;6.094;2022-09-29T13:38:12;3.30;;;1.70;;
12886;SDS011;6511;49.746;6.094;2022-09-29T13:51:48;2.30;;;1.20;;
12886;SDS011;6511;49.746;6.094;2022-09-29T13:59:43;1.98;;;1.30;;
12886;SDS011;6511;49.746;6.094;2022-09-29T14:02:26;2.28;;;1.00;;
12886;SDS011;6511;49.746;6.094;2022-09-29T14:04:53;1.63;;;1.00;;
12886;SDS011;6511;49.746;6.094;2022-09-29T14:07:39;2.10;;;1.30;;
12886;SDS011;6511;49.746;6.094;2022-09-29T14:13:05;2.80;;;1.48;;
12886;SDS011;6511;49.746;6.094;2022-09-29T14:15:45;1.50;;;1.10;;
12886;SDS011;6511;49.746;6.094;2022-09-29T14:18:37;1.85;;;1.30;;
12886;SDS011;6511;49.746;6.094;2022-09-29T14:21:04;2.22;;;1.40;;
12886;SDS011;6511;49.746;6.094;2022-09-29T14:29:22;1.60;;;1.00;;
12886;SDS011;6511;49.746;6.094;2022-09-29T14:31:57;1.10;;;0.80;;
12886;SDS011;6511;49.746;6.094;2022-09-29T14:34:25;1.60;;;0.90;;
12886;SDS011;6511;49.746;6.094;2022-09-29T14:36:54;1.60;;;0.90;;
12886;SDS011;6511;49.746;6.094;2022-09-29T14:39:22;2.17;;;1.00;;
12886;SDS011;6511;49.746;6.094;2022-09-29T14:41:48;1.70;;;0.98;;
12886;SDS011;6511;49.746;6.094;2022-09-29T14:44:17;1.85;;;1.00;;
12886;SDS011;6511;49.746;6.094;2022-09-29T14:47:23;1.55;;;1.10;;
12886;SDS011;6511;49.746;6.094;2022-09-29T14:53:08;2.47;;;1.30;;
12886;SDS011;6511;49.746;6.094;2022-09-29T15:03:27;1.77;;;1.00;;
12886;SDS011;6511;49.746;6.094;2022-09-29T15:06:17;1.52;;;0.95;;
12886;SDS011;6511;49.746;6.094;2022-09-29T15:09:01;0.95;;;0.88;;
12886;SDS011;6511;49.746;6.094;2022-09-29T15:11:43;1.88;;;0.90;;
12886;SDS011;6511;49.746;6.094;2022-09-29T15:25:47;4.05;;;3.15;;
12886;SDS011;6511;49.746;6.094;2022-09-29T15:28:34;3.72;;;1.20;;
12886;SDS011;6511;49.746;6.094;2022-09-29T15:31:08;1.53;;;1.00;;
12886;SDS011;6511;49.746;6.094;2022-09-29T15:33:45;2.13;;;1.00;;
12886;SDS011;6511;49.746;6.094;2022-09-29T15:38:54;2.60;;;0.90;;
12886;SDS011;6511;49.746;6.094;2022-09-29T15:41:27;1.58;;;0.90;;
12886;SDS011;6511;49.746;6.094;2022-09-29T15:43:57;1.85;;;0.95;;
12886;SDS011;6511;49.746;6.094;2022-09-29T15:46:28;1.60;;;0.90;;
12886;SDS011;6511;49.746;6.094;2022-09-29T15:51:32;2.53;;;1.60;;
12886;SDS011;6511;49.746;6.094;2022-09-29T15:54:00;4.00;;;1.92;;
12886;SDS011;6511;49.746;6.094;2022-09-29T15:56:29;3.73;;;1.87;;
12886;SDS011;6511;49.746;6.094;2022-09-29T15:58:55;3.03;;;2.30;;
12886;SDS011;6511;49.746;6.094;2022-09-29T16:01:21;5.00;;;3.03;;
12886;SDS011;6511;49.746;6.094;2022-09-29T16:03:55;3.20;;;2.05;;
12886;SDS011;6511;49.746;6.094;2022-09-29T16:06:31;2.55;;;1.50;;
12886;SDS011;6511;49.746;6.094;2022-09-29T16:09:04;2.58;;;1.60;;
12886;SDS011;6511;49.746;6.094;2022-09-29T16:11:42;2.10;;;1.45;;
12886;SDS011;6511;49.746;6.094;2022-09-29T16:14:15;3.15;;;1.70;;
12886;SDS011;6511;49.746;6.094;2022-09-29T16:16:46;3.60;;;1.20;;
12886;SDS011;6511;49.746;6.094;2022-09-29T16:19:19;1.42;;;1.17;;
12886;SDS011;6511;49.746;6.094;2022-09-29T16:21:49;1.85;;;1.23;;
12886;SDS011;6511;49.746;6.094;2022-09-29T16:24:49;2.55;;;1.17;;
12886;SDS011;6511;49.746;6.094;2022-09-29T16:27:39;1.67;;;1.05;;
12886;SDS011;6511;49.746;6.094;2022-09-29T16:30:32;2.20;;;1.10;;
12886;SDS011;6511;49.746;6.094;2022-09-29T16:33:14;2.17;;;1.20;;
12886;SDS011;6511;49.746;6.094;2022-09-29T16:38:51;2.08;;;1.40;;
12886;SDS011;6511;49.746;6.094;2022-09-29T16:43:36;2.97;;;1.60;;
12886;SDS011;6511;49.746;6.094;2022-09-29T16:46:05;1.80;;;1.10;;
12886;SDS011;6511;49.746;6.094;2022-09-29T16:48:37;3.03;;;1.23;;
12886;SDS011;6511;49.746;6.094;2022-09-29T16:51:08;2.05;;;1.20;;
12886;SDS011;6511;49.746;6.094;2022-09-29T16:53:41;1.88;;;1.20;;
12886;SDS011;6511;49.746;6.094;2022-09-29T16:56:09;3.97;;;2.80;;
12886;SDS011;6511;49.746;6.094;2022-09-29T16:58:45;4.57;;;4.07;;
12886;SDS011;6511;49.746;6.094;2022-09-29T17:01:35;2.20;;;1.20;;
12886;SDS011;6511;49.746;6.094;2022-09-29T17:04:05;3.80;;;1.30;;
12886;SDS011;6511;49.746;6.094;2022-09-29T17:06:31;5.95;;;5.35;;
12886;SDS011;6511;49.746;6.094;2022-09-29T17:08:57;5.38;;;3.63;;
12886;SDS011;6511;49.746;6.094;2022-09-29T17:11:23;4.07;;;3.28;;
12886;SDS011;6511;49.746;6.094;2022-09-29T17:13:53;4.87;;;3.90;;
12886;SDS011;6511;49.746;6.094;2022-09-29T17:16:24;3.60;;;2.70;;
12886;SDS011;6511;49.746;6.094;2022-09-29T17:18:52;2.50;;;1.65;;
12886;SDS011;6511;49.746;6.094;2022-09-29T17:21:20;3.90;;;1.50;;
12886;SDS011;6511;49.746;6.094;2022-09-29T17:23:45;3.03;;;1.73;;
12886;SDS011;6511;49.746;6.094;2022-09-29T17:26:18;2.47;;;1.85;;
12886;SDS011;6511;49.746;6.094;2022-09-29T17:29:16;2.60;;;1.55;;
12886;SDS011;6511;49.746;6.094;2022-09-29T17:31:42;2.25;;;1.50;;
12886;SDS011;6511;49.746;6.094;2022-09-29T17:34:07;2.63;;;1.60;;
12886;SDS011;6511;49.746;6.094;2022-09-29T17:36:33;3.37;;;1.70;;
12886;SDS011;6511;49.746;6.094;2022-09-29T17:39:00;2.25;;;1.80;;
12886;SDS011;6511;49.746;6.094;2022-09-29T17:41:26;3.20;;;1.70;;
12886;SDS011;6511;49.746;6.094;2022-09-29T17:43:52;2.40;;;1.87;;
12886;SDS011;6511;49.746;6.094;2022-09-29T17:46:17;3.20;;;1.98;;
12886;SDS011;6511;49.746;6.094;2022-09-29T17:48:43;3.60;;;2.20;;
12886;SDS011;6511;49.746;6.094;2022-09-29T17:51:12;1.80;;;1.70;;
12886;SDS011;6511;49.746;6.094;2022-09-29T17:53:42;2.90;;;2.00;;
12886;SDS011;6511;49.746;6.094;2022-09-29T17:56:14;3.73;;;2.30;;
12886;SDS011;6511;49.746;6.094;2022-09-29T17:58:50;3.17;;;2.88;;
12886;SDS011;6511;49.746;6.094;2022-09-29T18:01:17;3.05;;;2.40;;
12886;SDS011;6511;49.746;6.094;2022-09-29T18:03:44;3.90;;;2.67;;
12886;SDS011;6511;49.746;6.094;2022-09-29T18:06:13;4.60;;;2.60;;
12886;SDS011;6511;49.746;6.094;2022-09-29T18:08:46;4.53;;;2.88;;
12886;SDS011;6511;49.746;6.094;2022-09-29T18:11:15;4.60;;;3.00;;
12886;SDS011;6511;49.746;6.094;2022-09-29T18:13:45;4.13;;;3.67;;
12886;SDS011;6511;49.746;6.094;2022-09-29T18:16:15;5.25;;;3.92;;
12886;SDS011;6511;49.746;6.094;2022-09-29T18:18:43;7.93;;;5.68;;
12886;SDS011;6511;49.746;6.094;2022-09-29T18:21:09;4.35;;;3.05;;
12886;SDS011;6511;49.746;6.094;2022-09-29T18:23:35;3.85;;;3.45;;
12886;SDS011;6511;49.746;6.094;2022-09-29T18:26:03;4.20;;;3.33;;
12886;SDS011;6511;49.746;6.094;2022-09-29T18:28:30;4.50;;;2.90;;
12886;SDS011;6511;49.746;6.094;2022-09-29T18:31:05;3.05;;;2.40;;
12886;SDS011;6511;49.746;6.094;2022-09-29T18:33:52;4.00;;;2.70;;
12886;SDS011;6511;49.746;6.094;2022-09-29T18:36:18;4.47;;;2.72;;
12886;SDS011;6511;49.746;6.094;2022-09-29T18:38:44;7.20;;;6.43;;
12886;SDS011;6511;49.746;6.094;2022-09-29T18:41:18;8.45;;;6.72;;
12886;SDS011;6511;49.746;6.094;2022-09-29T18:44:15;6.72;;;4.78;;